Tokuyoshi Maru — JI3537 — position and weather

sailwx.info

Track history (hours):
 
Tides and Currents Weather Stations Pressure Air Temp Water Temp Dewpoint Dewpoint Depression Visibility Wind Speed Wind Dir Waves Ship Positions

Tokuyoshi Maru

Last reported at 2018-Feb-20 16:59 UTC. Time now 2018-Feb-20 17:14 UTC.
Position N 34°39' E 135°27'.

Length 48 m.

Type: Tanker. MMSI: 431300099.

Date/timePositionNaut miles runAvg speedWind from/ knotsBaromVisibWave heightAir tempDewpointWater temp
2018-Feb-20 16:59N 34°39' E 135°27'0 0.0
2018-Feb-20 16:29N 34°39' E 135°27'0 0.0
2018-Feb-20 15:59N 34°39' E 135°27'0 0.0
2018-Feb-20 15:29N 34°39' E 135°27'0 0.0
2018-Feb-20 14:59N 34°39' E 135°27'0 0.0
2018-Feb-20 14:29N 34°39' E 135°27'0 0.0
2018-Feb-20 13:56N 34°39' E 135°27'0 0.0
2018-Feb-20 13:29N 34°39' E 135°27'0 0.0
2018-Feb-20 12:59N 34°39' E 135°27'0 0.0
2018-Feb-20 12:29N 34°39' E 135°27'0 0.0
2018-Feb-20 11:59N 34°39' E 135°27'0 0.0
2018-Feb-20 11:29N 34°39' E 135°27'0 0.0
2018-Feb-20 10:59N 34°39' E 135°27'0 0.0
2018-Feb-20 10:29N 34°39' E 135°27'0 0.0
2018-Feb-20 09:59N 34°39' E 135°27'0 0.0
2018-Feb-20 09:29N 34°39' E 135°27'0 0.0
2018-Feb-20 08:55N 34°39' E 135°27'0 0.0
2018-Feb-20 08:25N 34°39' E 135°27'0 0.0
2018-Feb-20 07:59N 34°39' E 135°27'0 0.0
2018-Feb-20 07:29N 34°39' E 135°27'0 0.0
2018-Feb-20 06:59N 34°39' E 135°27'0 0.0
2018-Feb-20 06:29N 34°39' E 135°27'0 0.0
2018-Feb-20 06:00N 34°39' E 135°27'0 0.0
2018-Feb-20 05:28N 34°39' E 135°27'0 0.0
2018-Feb-20 05:00N 34°39' E 135°27'0 0.0
2018-Feb-20 04:30N 34°39' E 135°27'0 0.0
2018-Feb-20 03:55N 34°39' E 135°27'0 0.0
2018-Feb-20 03:28N 34°39' E 135°27'0 0.0
2018-Feb-20 02:58N 34°39' E 135°27'0 0.0
2018-Feb-20 02:28N 34°39' E 135°27'0 0.0
2018-Feb-20 01:55N 34°39' E 135°27'0 0.0
2018-Feb-20 01:28N 34°39' E 135°27'0 0.0
2018-Feb-20 00:59N 34°39' E 135°27'0 0.0
2018-Feb-20 00:28N 34°39' E 135°27'0 0.0
2018-Feb-20 00:00N 34°39' E 135°27'0 0.0
2018-Feb-19 23:29N 34°39' E 135°27'0 0.0
2018-Feb-19 22:59N 34°39' E 135°27'0 0.0
2018-Feb-19 22:29N 34°39' E 135°27'0 0.0
2018-Feb-19 21:59N 34°39' E 135°27'0 0.0
2018-Feb-19 21:23N 34°39' E 135°27'0 0.0
2018-Feb-19 20:59N 34°39' E 135°27'0 0.0
2018-Feb-19 20:29N 34°39' E 135°27'0 0.0
2018-Feb-19 19:59N 34°39' E 135°27'0 0.0
2018-Feb-19 19:29N 34°39' E 135°27'0 0.0
2018-Feb-19 18:59N 34°39' E 135°27'0 0.0
2018-Feb-19 18:30N 34°39' E 135°27'0 0.0
2018-Feb-19 17:58N 34°39' E 135°27'0 0.0
2018-Feb-19 17:30N 34°39' E 135°27'0 0.0
2018-Feb-19 16:58N 34°39' E 135°27'0 0.0
2018-Feb-19 16:30N 34°39' E 135°27'0 0.0
2018-Feb-19 15:59N 34°39' E 135°27'0 0.0
2018-Feb-19 15:28N 34°39' E 135°27'0 0.0
2018-Feb-19 15:00N 34°39' E 135°27'0 0.0
2018-Feb-19 14:29N 34°39' E 135°27'0 0.0
2018-Feb-19 14:00N 34°39' E 135°27'0 0.0
2018-Feb-19 13:28N 34°39' E 135°27'0 0.0
2018-Feb-19 13:00N 34°39' E 135°27'0 0.0
2018-Feb-19 12:30N 34°39' E 135°27'0 0.0
2018-Feb-19 12:00N 34°39' E 135°27'0 0.0
2018-Feb-19 11:30N 34°39' E 135°27'0 0.1
2018-Feb-19 11:00N 34°39' E 135°27'4 8.6
2018-Feb-19 10:30N 34°40' E 135°22'510.5
2018-Feb-19 10:00N 34°39' E 135°16'2 4.6
2018-Feb-19 09:29N 34°40' E 135°13'0 0.0
2018-Feb-19 08:59N 34°40' E 135°13'0 0.0
2018-Feb-19 08:29N 34°40' E 135°13'0 0.0
2018-Feb-19 07:59N 34°40' E 135°13'0 0.0
2018-Feb-19 07:29N 34°40' E 135°13'0 0.0
2018-Feb-19 06:59N 34°40' E 135°13'2 3.7
2018-Feb-19 06:30N 34°40' E 135°15'5 9.6
2018-Feb-19 06:00N 34°36' E 135°20'5 9.6
2018-Feb-19 05:30N 34°33' E 135°24'1 2.3
2018-Feb-19 04:59N 34°33' E 135°26'0 0.0
2018-Feb-19 04:26N 34°33' E 135°26'0 0.0
2018-Feb-19 03:59N 34°33' E 135°26'0 0.0
2018-Feb-19 03:29N 34°33' E 135°26'0 0.8
2018-Feb-19 03:00N 34°33' E 135°25'5 9.4
2018-Feb-19 02:30N 34°38' E 135°23'1 2.6
2018-Feb-19 02:00N 34°39' E 135°24'0 0.0
2018-Feb-19 01:29N 34°39' E 135°24'0 0.0
2018-Feb-19 01:00N 34°39' E 135°24'0 0.0
2018-Feb-19 00:30N 34°39' E 135°24'0 0.0
2018-Feb-19 00:00N 34°39' E 135°24'0 0.2
2018-Feb-18 23:28N 34°39' E 135°24'1 1.4
2018-Feb-18 22:59N 34°39' E 135°25'2 4.1
2018-Feb-18 22:28N 34°39' E 135°27'0 0.0
2018-Feb-18 22:00N 34°39' E 135°27'0 0.0
2018-Feb-18 21:30N 34°39' E 135°27'0 0.0
2018-Feb-18 21:00N 34°39' E 135°27'0 0.0
2018-Feb-18 20:30N 34°39' E 135°27'0 0.0
2018-Feb-18 20:00N 34°39' E 135°27'0 0.0
2018-Feb-18 19:27N 34°39' E 135°27'0 0.0
2018-Feb-18 19:00N 34°39' E 135°27'0 0.0
2018-Feb-18 18:30N 34°39' E 135°27'0 0.0
2018-Feb-18 18:00N 34°39' E 135°27'0 0.0
2018-Feb-18 17:30N 34°39' E 135°27'0 0.0
2018-Feb-18 17:00N 34°39' E 135°27'0 0.0
2018-Feb-18 16:30N 34°39' E 135°27'0 0.0
2018-Feb-18 16:00N 34°39' E 135°27'0 0.0
2018-Feb-18 15:29N 34°39' E 135°27'0 0.0
2018-Feb-18 14:59N 34°39' E 135°27'0 0.0
2018-Feb-18 14:29N 34°39' E 135°27'0 0.0
2018-Feb-18 13:59N 34°39' E 135°27'0 0.0
2018-Feb-18 13:29N 34°39' E 135°27'0 0.0
2018-Feb-18 12:59N 34°39' E 135°27'0 0.0
2018-Feb-18 12:28N 34°39' E 135°27'0 0.0
2018-Feb-18 12:00N 34°39' E 135°27'0 0.3
2018-Feb-18 11:30N 34°39' E 135°27'4 8.0
2018-Feb-18 11:00N 34°36' E 135°24'3 6.0
2018-Feb-18 10:29N 34°33' E 135°26'0 0.0
2018-Feb-18 09:59N 34°33' E 135°26'0 0.0
2018-Feb-18 09:29N 34°33' E 135°26'0 0.0
2018-Feb-18 08:59N 34°33' E 135°26'0 0.4
2018-Feb-18 08:28N 34°33' E 135°26'0 0.0
2018-Feb-18 07:58N 34°33' E 135°26'0 0.0
2018-Feb-18 07:28N 34°33' E 135°26'1 2.2
2018-Feb-18 07:00N 34°33' E 135°24'510.7
2018-Feb-18 06:30N 34°35' E 135°18'510.9
2018-Feb-18 06:00N 34°35' E 135°11'611.5
2018-Feb-18 05:30N 34°36' E 135°04'712.9
2018-Feb-18 05:00N 34°37' E 134°57'612.5
2018-Feb-18 04:30N 34°40' E 134°50'0 0.1
2018-Feb-17 22:26N 34°40' E 134°50'511.3
2018-Feb-17 22:00N 34°38' E 134°55'510.5
2018-Feb-17 21:30N 34°38' E 135°01'5 9.2
2018-Feb-17 21:01N 34°37' E 135°06'4 8.8
2018-Feb-17 20:30N 34°39' E 135°11'0 0.8
2018-Feb-17 19:58N 34°39' E 135°12'0 0.0
2018-Feb-17 19:30N 34°39' E 135°12'0 0.0
2018-Feb-17 19:00N 34°39' E 135°12'0 0.0
2018-Feb-17 18:28N 34°39' E 135°12'0 0.0
2018-Feb-17 18:00N 34°39' E 135°12'0 0.0
2018-Feb-17 17:28N 34°39' E 135°12'0 0.0
2018-Feb-17 17:00N 34°39' E 135°12'0 0.0
2018-Feb-17 16:29N 34°39' E 135°12'0 0.0
2018-Feb-17 16:00N 34°39' E 135°12'0 0.0
2018-Feb-17 15:28N 34°39' E 135°12'0 0.0
2018-Feb-17 14:58N 34°39' E 135°12'0 0.0
2018-Feb-17 14:28N 34°39' E 135°12'0 0.0
2018-Feb-17 13:58N 34°39' E 135°12'0 0.0
2018-Feb-17 13:28N 34°39' E 135°12'0 0.0
2018-Feb-17 12:58N 34°39' E 135°12'0 0.0
2018-Feb-17 12:28N 34°39' E 135°12'0 0.0
2018-Feb-17 11:58N 34°39' E 135°12'0 0.0
2018-Feb-17 11:28N 34°39' E 135°12'0 0.0
2018-Feb-17 10:58N 34°39' E 135°12'0 0.0
2018-Feb-17 10:28N 34°39' E 135°12'0 0.0
2018-Feb-17 09:58N 34°39' E 135°12'0 0.0
2018-Feb-17 09:28N 34°39' E 135°12'0 0.0
2018-Feb-17 08:58N 34°39' E 135°12'0 0.0
2018-Feb-17 08:28N 34°39' E 135°12'0 0.1
2018-Feb-17 07:58N 34°39' E 135°12'3 6.6
2018-Feb-17 07:30N 34°39' E 135°15'4 8.3
2018-Feb-17 07:00N 34°39' E 135°20'4 7.2
2018-Feb-17 06:30N 34°37' E 135°24'3 5.2
2018-Feb-17 05:58N 34°34' E 135°26'0 0.0
2018-Feb-17 05:28N 34°34' E 135°26'0 0.0
2018-Feb-17 04:55N 34°34' E 135°26'0 0.0
2018-Feb-17 04:30N 34°34' E 135°26'0 0.1
2018-Feb-17 03:59N 34°34' E 135°26'4 7.7
2018-Feb-17 03:30N 34°38' E 135°24'510.6
2018-Feb-17 03:00N 34°41' E 135°18'2 2.9
2018-Feb-17 02:27N 34°42' E 135°18'0 0.0
2018-Feb-17 02:00N 34°42' E 135°18'0 0.0
2018-Feb-17 01:30N 34°42' E 135°18'0 0.0
2018-Feb-17 01:00N 34°42' E 135°18'0 0.0
2018-Feb-17 00:30N 34°42' E 135°18'0 0.0
2018-Feb-17 00:00N 34°42' E 135°18'0 0.5
2018-Feb-16 23:30N 34°42' E 135°18'4 8.5
2018-Feb-16 23:00N 34°40' E 135°22'4 8.0
2018-Feb-16 22:30N 34°39' E 135°27'0 0.6
2018-Feb-16 22:00N 34°39' E 135°27'0 0.0
2018-Feb-16 21:28N 34°39' E 135°27'0 0.0
2018-Feb-16 20:58N 34°39' E 135°27'0 0.0
2018-Feb-16 20:28N 34°39' E 135°27'0 0.0
2018-Feb-16 19:58N 34°39' E 135°27'0 0.0
2018-Feb-16 19:28N 34°39' E 135°27'0 0.0
2018-Feb-16 18:58N 34°39' E 135°27'0 0.0
2018-Feb-16 18:28N 34°39' E 135°27'0 0.0
2018-Feb-16 17:58N 34°39' E 135°27'0 0.0
2018-Feb-16 17:28N 34°39' E 135°27'0 0.0
2018-Feb-16 16:58N 34°39' E 135°27'0 0.0
2018-Feb-16 16:22N 34°39' E 135°27'0 0.0
2018-Feb-16 15:58N 34°39' E 135°27'0 0.0
2018-Feb-16 15:28N 34°39' E 135°27'0 0.0
2018-Feb-16 14:58N 34°39' E 135°27'0 0.0
2018-Feb-16 14:28N 34°39' E 135°27'0 0.0
2018-Feb-16 13:58N 34°39' E 135°27'0 0.0
2018-Feb-16 13:28N 34°39' E 135°27'0 0.0
2018-Feb-16 12:58N 34°39' E 135°27'0 0.0
2018-Feb-16 12:28N 34°39' E 135°27'0 0.0
2018-Feb-16 11:58N 34°39' E 135°27'0 0.0
2018-Feb-16 11:28N 34°39' E 135°27'0 0.0
2018-Feb-16 10:58N 34°39' E 135°27'0 0.0
2018-Feb-16 10:28N 34°39' E 135°27'0 0.0
2018-Feb-16 09:58N 34°39' E 135°27'0 0.0
2018-Feb-16 09:28N 34°39' E 135°27'0 0.0
2018-Feb-16 08:58N 34°39' E 135°27'0 0.0
2018-Feb-16 08:28N 34°39' E 135°27'0 0.0
2018-Feb-16 07:58N 34°39' E 135°27'0 0.0
2018-Feb-16 07:28N 34°39' E 135°27'0 0.0
2018-Feb-16 07:00N 34°39' E 135°27'2 3.4
2018-Feb-16 06:30N 34°37' E 135°26'4 7.9
2018-Feb-16 06:00N 34°34' E 135°24'2 2.6
2018-Feb-16 05:25N 34°33' E 135°26'0 0.0
2018-Feb-16 04:55N 34°33' E 135°26'0 0.0
2018-Feb-16 04:28N 34°33' E 135°26'2 4.1
2018-Feb-16 03:57N 34°34' E 135°23'3 6.8
2018-Feb-16 03:30N 34°36' E 135°21'510.8
2018-Feb-16 03:00N 34°39' E 135°16'2 3.3
2018-Feb-16 02:28N 34°41' E 135°15'0 0.0
2018-Feb-16 01:58N 34°41' E 135°15'0 0.0
2018-Feb-16 01:28N 34°41' E 135°15'0 0.0
2018-Feb-16 00:58N 34°41' E 135°15'0 0.0
2018-Feb-16 00:30N 34°41' E 135°15'0 0.0
2018-Feb-16 00:00N 34°41' E 135°15'1 2.8
2018-Feb-15 23:30N 34°42' E 135°17'5 9.5
2018-Feb-15 23:00N 34°40' E 135°22'4 8.7
2018-Feb-15 22:30N 34°39' E 135°27'1 1.0
2018-Feb-15 21:58N 34°39' E 135°27'0 0.0
2018-Feb-15 21:28N 34°39' E 135°27'0 0.0
2018-Feb-15 20:59N 34°39' E 135°27'0 0.0
2018-Feb-15 20:29N 34°39' E 135°27'0 0.0
2018-Feb-15 19:57N 34°39' E 135°27'0 0.0
2018-Feb-15 19:30N 34°39' E 135°27'0 0.0
2018-Feb-15 19:00N 34°39' E 135°27'0 0.0
2018-Feb-15 18:30N 34°39' E 135°27'0 0.0
2018-Feb-15 18:00N 34°39' E 135°27'0 0.0
2018-Feb-15 17:30N 34°39' E 135°27'0 0.0
2018-Feb-15 17:00N 34°39' E 135°27'0 0.0
2018-Feb-15 16:30N 34°39' E 135°27'0 0.0
2018-Feb-15 16:00N 34°39' E 135°27'0 0.0
2018-Feb-15 15:30N 34°39' E 135°27'0 0.0
2018-Feb-15 15:00N 34°39' E 135°27'0 0.0
2018-Feb-15 14:30N 34°39' E 135°27'0 0.0
2018-Feb-15 14:00N 34°39' E 135°27'0 0.0
2018-Feb-15 13:30N 34°39' E 135°27'0 0.0
2018-Feb-15 13:00N 34°39' E 135°27'0 0.0
2018-Feb-15 12:27N 34°39' E 135°27'0 0.0
2018-Feb-15 12:00N 34°39' E 135°27'0 0.0
2018-Feb-15 11:30N 34°39' E 135°27'0 0.0
2018-Feb-15 10:58N 34°39' E 135°27'0 0.0
2018-Feb-15 10:28N 34°39' E 135°27'0 0.0
2018-Feb-15 10:00N 34°39' E 135°27'0 0.0
2018-Feb-15 09:30N 34°39' E 135°27'0 0.0
2018-Feb-15 08:59N 34°39' E 135°27'0 0.0
2018-Feb-15 08:26N 34°39' E 135°27'0 0.0
2018-Feb-15 07:56N 34°39' E 135°27'0 0.0
2018-Feb-15 07:29N 34°39' E 135°27'0 0.0
2018-Feb-15 06:56N 34°39' E 135°27'0 0.0
2018-Feb-15 06:24N 34°39' E 135°27'0 0.0
2018-Feb-15 05:57N 34°39' E 135°27'0 0.0
2018-Feb-15 05:30N 34°39' E 135°27'0 0.0
2018-Feb-15 04:58N 34°39' E 135°27'1 1.2
2018-Feb-15 04:30N 34°39' E 135°27'4 8.0
2018-Feb-15 04:00N 34°35' E 135°24'3 5.3
2018-Feb-15 03:30N 34°33' E 135°26'0 0.0
2018-Feb-15 03:00N 34°33' E 135°26'0 0.0
2018-Feb-15 02:30N 34°33' E 135°26'0 0.0
2018-Feb-15 02:00N 34°33' E 135°26'0 0.3
2018-Feb-15 01:29N 34°33' E 135°26'2 4.6
2018-Feb-15 01:00N 34°34' E 135°23'5 9.7
2018-Feb-15 00:30N 34°37' E 135°19'5 9.7
2018-Feb-15 00:00N 34°39' E 135°13'1 2.6
2018-Feb-14 23:30N 34°39' E 135°12'0 0.1
2018-Feb-14 23:00N 34°39' E 135°12'0 0.0
2018-Feb-14 22:30N 34°39' E 135°12'0 0.0
2018-Feb-14 22:00N 34°39' E 135°12'0 0.0
2018-Feb-14 21:30N 34°39' E 135°12'0 0.0
2018-Feb-14 21:00N 34°39' E 135°12'0 0.0
2018-Feb-14 20:30N 34°39' E 135°12'0 0.0
2018-Feb-14 20:00N 34°39' E 135°12'0 0.0
2018-Feb-14 19:30N 34°39' E 135°12'0 0.1
2018-Feb-14 19:00N 34°39' E 135°12'0 0.0
2018-Feb-14 18:30N 34°39' E 135°12'0 0.1
2018-Feb-14 18:00N 34°39' E 135°12'0 0.1
2018-Feb-14 17:30N 34°39' E 135°12'0 0.0
2018-Feb-14 17:00N 34°39' E 135°12'0 0.1
2018-Feb-14 16:30N 34°39' E 135°12'0 0.0
2018-Feb-14 16:00N 34°39' E 135°12'0 0.1
2018-Feb-14 15:28N 34°39' E 135°12'3 6.3
2018-Feb-14 15:00N 34°37' E 135°09'611.3
2018-Feb-14 14:31N 34°36' E 135°02'611.7
2018-Feb-14 14:00N 34°37' E 134°55'611.4
2018-Feb-14 13:30N 34°38' E 134°48'  
Track history (hours):
 
Tides and Currents Weather Stations Pressure Air Temp Water Temp Dewpoint Dewpoint Depression Visibility Wind Speed Wind Dir Waves Ship Positions

Tokuyoshi Maru

Last reported at 2018-Feb-20 16:59 UTC. Time now 2018-Feb-20 17:14 UTC.
Position N 34°39' E 135°27'.

Length 48 m.

Type: Tanker. MMSI: 431300099.

Date/timePositionNaut miles runAvg speedWind from/ knotsBaromVisibWave heightAir tempDewpointWater temp
2018-Feb-20 16:59N 34°39' E 135°27'0 0.0
2018-Feb-20 16:29N 34°39' E 135°27'0 0.0
2018-Feb-20 15:59N 34°39' E 135°27'0 0.0
2018-Feb-20 15:29N 34°39' E 135°27'0 0.0
2018-Feb-20 14:59N 34°39' E 135°27'0 0.0
2018-Feb-20 14:29N 34°39' E 135°27'0 0.0
2018-Feb-20 13:56N 34°39' E 135°27'0 0.0
2018-Feb-20 13:29N 34°39' E 135°27'0 0.0
2018-Feb-20 12:59N 34°39' E 135°27'0 0.0
2018-Feb-20 12:29N 34°39' E 135°27'0 0.0
2018-Feb-20 11:59N 34°39' E 135°27'0 0.0
2018-Feb-20 11:29N 34°39' E 135°27'0 0.0
2018-Feb-20 10:59N 34°39' E 135°27'0 0.0
2018-Feb-20 10:29N 34°39' E 135°27'0 0.0
2018-Feb-20 09:59N 34°39' E 135°27'0 0.0
2018-Feb-20 09:29N 34°39' E 135°27'0 0.0
2018-Feb-20 08:55N 34°39' E 135°27'0 0.0
2018-Feb-20 08:25N 34°39' E 135°27'0 0.0
2018-Feb-20 07:59N 34°39' E 135°27'0 0.0
2018-Feb-20 07:29N 34°39' E 135°27'0 0.0
2018-Feb-20 06:59N 34°39' E 135°27'0 0.0
2018-Feb-20 06:29N 34°39' E 135°27'0 0.0
2018-Feb-20 06:00N 34°39' E 135°27'0 0.0
2018-Feb-20 05:28N 34°39' E 135°27'0 0.0
2018-Feb-20 05:00N 34°39' E 135°27'0 0.0
2018-Feb-20 04:30N 34°39' E 135°27'0 0.0
2018-Feb-20 03:55N 34°39' E 135°27'0 0.0
2018-Feb-20 03:28N 34°39' E 135°27'0 0.0
2018-Feb-20 02:58N 34°39' E 135°27'0 0.0
2018-Feb-20 02:28N 34°39' E 135°27'0 0.0
2018-Feb-20 01:55N 34°39' E 135°27'0 0.0
2018-Feb-20 01:28N 34°39' E 135°27'0 0.0
2018-Feb-20 00:59N 34°39' E 135°27'0 0.0
2018-Feb-20 00:28N 34°39' E 135°27'0 0.0
2018-Feb-20 00:00N 34°39' E 135°27'0 0.0
2018-Feb-19 23:29N 34°39' E 135°27'0 0.0
2018-Feb-19 22:59N 34°39' E 135°27'0 0.0
2018-Feb-19 22:29N 34°39' E 135°27'0 0.0
2018-Feb-19 21:59N 34°39' E 135°27'0 0.0
2018-Feb-19 21:23N 34°39' E 135°27'0 0.0
2018-Feb-19 20:59N 34°39' E 135°27'0 0.0
2018-Feb-19 20:29N 34°39' E 135°27'0 0.0
2018-Feb-19 19:59N 34°39' E 135°27'0 0.0
2018-Feb-19 19:29N 34°39' E 135°27'0 0.0
2018-Feb-19 18:59N 34°39' E 135°27'0 0.0
2018-Feb-19 18:30N 34°39' E 135°27'0 0.0
2018-Feb-19 17:58N 34°39' E 135°27'0 0.0
2018-Feb-19 17:30N 34°39' E 135°27'0 0.0
2018-Feb-19 16:58N 34°39' E 135°27'0 0.0
2018-Feb-19 16:30N 34°39' E 135°27'0 0.0
2018-Feb-19 15:59N 34°39' E 135°27'0 0.0
2018-Feb-19 15:28N 34°39' E 135°27'0 0.0
2018-Feb-19 15:00N 34°39' E 135°27'0 0.0
2018-Feb-19 14:29N 34°39' E 135°27'0 0.0
2018-Feb-19 14:00N 34°39' E 135°27'0 0.0
2018-Feb-19 13:28N 34°39' E 135°27'0 0.0
2018-Feb-19 13:00N 34°39' E 135°27'0 0.0
2018-Feb-19 12:30N 34°39' E 135°27'0 0.0
2018-Feb-19 12:00N 34°39' E 135°27'0 0.0
2018-Feb-19 11:30N 34°39' E 135°27'0 0.1
2018-Feb-19 11:00N 34°39' E 135°27'4 8.6
2018-Feb-19 10:30N 34°40' E 135°22'510.5
2018-Feb-19 10:00N 34°39' E 135°16'2 4.6
2018-Feb-19 09:29N 34°40' E 135°13'0 0.0
2018-Feb-19 08:59N 34°40' E 135°13'0 0.0
2018-Feb-19 08:29N 34°40' E 135°13'0 0.0
2018-Feb-19 07:59N 34°40' E 135°13'0 0.0
2018-Feb-19 07:29N 34°40' E 135°13'0 0.0
2018-Feb-19 06:59N 34°40' E 135°13'2 3.7
2018-Feb-19 06:30N 34°40' E 135°15'5 9.6
2018-Feb-19 06:00N 34°36' E 135°20'5 9.6
2018-Feb-19 05:30N 34°33' E 135°24'1 2.3
2018-Feb-19 04:59N 34°33' E 135°26'0 0.0
2018-Feb-19 04:26N 34°33' E 135°26'0 0.0
2018-Feb-19 03:59N 34°33' E 135°26'0 0.0
2018-Feb-19 03:29N 34°33' E 135°26'0 0.8
2018-Feb-19 03:00N 34°33' E 135°25'5 9.4
2018-Feb-19 02:30N 34°38' E 135°23'1 2.6
2018-Feb-19 02:00N 34°39' E 135°24'0 0.0
2018-Feb-19 01:29N 34°39' E 135°24'0 0.0
2018-Feb-19 01:00N 34°39' E 135°24'0 0.0
2018-Feb-19 00:30N 34°39' E 135°24'0 0.0
2018-Feb-19 00:00N 34°39' E 135°24'0 0.2
2018-Feb-18 23:28N 34°39' E 135°24'1 1.4
2018-Feb-18 22:59N 34°39' E 135°25'2 4.1
2018-Feb-18 22:28N 34°39' E 135°27'0 0.0
2018-Feb-18 22:00N 34°39' E 135°27'0 0.0
2018-Feb-18 21:30N 34°39' E 135°27'0 0.0
2018-Feb-18 21:00N 34°39' E 135°27'0 0.0
2018-Feb-18 20:30N 34°39' E 135°27'0 0.0
2018-Feb-18 20:00N 34°39' E 135°27'0 0.0
2018-Feb-18 19:27N 34°39' E 135°27'0 0.0
2018-Feb-18 19:00N 34°39' E 135°27'0 0.0
2018-Feb-18 18:30N 34°39' E 135°27'0 0.0
2018-Feb-18 18:00N 34°39' E 135°27'0 0.0
2018-Feb-18 17:30N 34°39' E 135°27'0 0.0
2018-Feb-18 17:00N 34°39' E 135°27'0 0.0
2018-Feb-18 16:30N 34°39' E 135°27'0 0.0
2018-Feb-18 16:00N 34°39' E 135°27'0 0.0
2018-Feb-18 15:29N 34°39' E 135°27'0 0.0
2018-Feb-18 14:59N 34°39' E 135°27'0 0.0
2018-Feb-18 14:29N 34°39' E 135°27'0 0.0
2018-Feb-18 13:59N 34°39' E 135°27'0 0.0
2018-Feb-18 13:29N 34°39' E 135°27'0 0.0
2018-Feb-18 12:59N 34°39' E 135°27'0 0.0
2018-Feb-18 12:28N 34°39' E 135°27'0 0.0
2018-Feb-18 12:00N 34°39' E 135°27'0 0.3
2018-Feb-18 11:30N 34°39' E 135°27'4 8.0
2018-Feb-18 11:00N 34°36' E 135°24'3 6.0
2018-Feb-18 10:29N 34°33' E 135°26'0 0.0
2018-Feb-18 09:59N 34°33' E 135°26'0 0.0
2018-Feb-18 09:29N 34°33' E 135°26'0 0.0
2018-Feb-18 08:59N 34°33' E 135°26'0 0.4
2018-Feb-18 08:28N 34°33' E 135°26'0 0.0
2018-Feb-18 07:58N 34°33' E 135°26'0 0.0
2018-Feb-18 07:28N 34°33' E 135°26'1 2.2
2018-Feb-18 07:00N 34°33' E 135°24'510.7
2018-Feb-18 06:30N 34°35' E 135°18'510.9
2018-Feb-18 06:00N 34°35' E 135°11'611.5
2018-Feb-18 05:30N 34°36' E 135°04'712.9
2018-Feb-18 05:00N 34°37' E 134°57'612.5
2018-Feb-18 04:30N 34°40' E 134°50'0 0.1
2018-Feb-17 22:26N 34°40' E 134°50'511.3
2018-Feb-17 22:00N 34°38' E 134°55'510.5
2018-Feb-17 21:30N 34°38' E 135°01'5 9.2
2018-Feb-17 21:01N 34°37' E 135°06'4 8.8
2018-Feb-17 20:30N 34°39' E 135°11'0 0.8
2018-Feb-17 19:58N 34°39' E 135°12'0 0.0
2018-Feb-17 19:30N 34°39' E 135°12'0 0.0
2018-Feb-17 19:00N 34°39' E 135°12'0 0.0
2018-Feb-17 18:28N 34°39' E 135°12'0 0.0
2018-Feb-17 18:00N 34°39' E 135°12'0 0.0
2018-Feb-17 17:28N 34°39' E 135°12'0 0.0
2018-Feb-17 17:00N 34°39' E 135°12'0 0.0
2018-Feb-17 16:29N 34°39' E 135°12'0 0.0
2018-Feb-17 16:00N 34°39' E 135°12'0 0.0
2018-Feb-17 15:28N 34°39' E 135°12'0 0.0
2018-Feb-17 14:58N 34°39' E 135°12'0 0.0
2018-Feb-17 14:28N 34°39' E 135°12'0 0.0
2018-Feb-17 13:58N 34°39' E 135°12'0 0.0
2018-Feb-17 13:28N 34°39' E 135°12'0 0.0
2018-Feb-17 12:58N 34°39' E 135°12'0 0.0
2018-Feb-17 12:28N 34°39' E 135°12'0 0.0
2018-Feb-17 11:58N 34°39' E 135°12'0 0.0
2018-Feb-17 11:28N 34°39' E 135°12'0 0.0
2018-Feb-17 10:58N 34°39' E 135°12'0 0.0
2018-Feb-17 10:28N 34°39' E 135°12'0 0.0
2018-Feb-17 09:58N 34°39' E 135°12'0 0.0
2018-Feb-17 09:28N 34°39' E 135°12'0 0.0
2018-Feb-17 08:58N 34°39' E 135°12'0 0.0
2018-Feb-17 08:28N 34°39' E 135°12'0 0.1
2018-Feb-17 07:58N 34°39' E 135°12'3 6.6
2018-Feb-17 07:30N 34°39' E 135°15'4 8.3
2018-Feb-17 07:00N 34°39' E 135°20'4 7.2
2018-Feb-17 06:30N 34°37' E 135°24'3 5.2
2018-Feb-17 05:58N 34°34' E 135°26'0 0.0
2018-Feb-17 05:28N 34°34' E 135°26'0 0.0
2018-Feb-17 04:55N 34°34' E 135°26'0 0.0
2018-Feb-17 04:30N 34°34' E 135°26'0 0.1
2018-Feb-17 03:59N 34°34' E 135°26'4 7.7
2018-Feb-17 03:30N 34°38' E 135°24'510.6
2018-Feb-17 03:00N 34°41' E 135°18'2 2.9
2018-Feb-17 02:27N 34°42' E 135°18'0 0.0
2018-Feb-17 02:00N 34°42' E 135°18'0 0.0
2018-Feb-17 01:30N 34°42' E 135°18'0 0.0
2018-Feb-17 01:00N 34°42' E 135°18'0 0.0
2018-Feb-17 00:30N 34°42' E 135°18'0 0.0
2018-Feb-17 00:00N 34°42' E 135°18'0 0.5
2018-Feb-16 23:30N 34°42' E 135°18'4 8.5
2018-Feb-16 23:00N 34°40' E 135°22'4 8.0
2018-Feb-16 22:30N 34°39' E 135°27'0 0.6
2018-Feb-16 22:00N 34°39' E 135°27'0 0.0
2018-Feb-16 21:28N 34°39' E 135°27'0 0.0
2018-Feb-16 20:58N 34°39' E 135°27'0 0.0
2018-Feb-16 20:28N 34°39' E 135°27'0 0.0
2018-Feb-16 19:58N 34°39' E 135°27'0 0.0
2018-Feb-16 19:28N 34°39' E 135°27'0 0.0
2018-Feb-16 18:58N 34°39' E 135°27'0 0.0
2018-Feb-16 18:28N 34°39' E 135°27'0 0.0
2018-Feb-16 17:58N 34°39' E 135°27'0 0.0
2018-Feb-16 17:28N 34°39' E 135°27'0 0.0
2018-Feb-16 16:58N 34°39' E 135°27'0 0.0
2018-Feb-16 16:22N 34°39' E 135°27'0 0.0
2018-Feb-16 15:58N 34°39' E 135°27'0 0.0
2018-Feb-16 15:28N 34°39' E 135°27'0 0.0
2018-Feb-16 14:58N 34°39' E 135°27'0 0.0
2018-Feb-16 14:28N 34°39' E 135°27'0 0.0
2018-Feb-16 13:58N 34°39' E 135°27'0 0.0
2018-Feb-16 13:28N 34°39' E 135°27'0 0.0
2018-Feb-16 12:58N 34°39' E 135°27'0 0.0
2018-Feb-16 12:28N 34°39' E 135°27'0 0.0
2018-Feb-16 11:58N 34°39' E 135°27'0 0.0
2018-Feb-16 11:28N 34°39' E 135°27'0 0.0
2018-Feb-16 10:58N 34°39' E 135°27'0 0.0
2018-Feb-16 10:28N 34°39' E 135°27'0 0.0
2018-Feb-16 09:58N 34°39' E 135°27'0 0.0
2018-Feb-16 09:28N 34°39' E 135°27'0 0.0
2018-Feb-16 08:58N 34°39' E 135°27'0 0.0
2018-Feb-16 08:28N 34°39' E 135°27'0 0.0
2018-Feb-16 07:58N 34°39' E 135°27'0 0.0
2018-Feb-16 07:28N 34°39' E 135°27'0 0.0
2018-Feb-16 07:00N 34°39' E 135°27'2 3.4
2018-Feb-16 06:30N 34°37' E 135°26'4 7.9
2018-Feb-16 06:00N 34°34' E 135°24'2 2.6
2018-Feb-16 05:25N 34°33' E 135°26'0 0.0
2018-Feb-16 04:55N 34°33' E 135°26'0 0.0
2018-Feb-16 04:28N 34°33' E 135°26'2 4.1
2018-Feb-16 03:57N 34°34' E 135°23'3 6.8
2018-Feb-16 03:30N 34°36' E 135°21'510.8
2018-Feb-16 03:00N 34°39' E 135°16'2 3.3
2018-Feb-16 02:28N 34°41' E 135°15'0 0.0
2018-Feb-16 01:58N 34°41' E 135°15'0 0.0
2018-Feb-16 01:28N 34°41' E 135°15'0 0.0
2018-Feb-16 00:58N 34°41' E 135°15'0 0.0
2018-Feb-16 00:30N 34°41' E 135°15'0 0.0
2018-Feb-16 00:00N 34°41' E 135°15'1 2.8
2018-Feb-15 23:30N 34°42' E 135°17'5 9.5
2018-Feb-15 23:00N 34°40' E 135°22'4 8.7
2018-Feb-15 22:30N 34°39' E 135°27'1 1.0
2018-Feb-15 21:58N 34°39' E 135°27'0 0.0
2018-Feb-15 21:28N 34°39' E 135°27'0 0.0
2018-Feb-15 20:59N 34°39' E 135°27'0 0.0
2018-Feb-15 20:29N 34°39' E 135°27'0 0.0
2018-Feb-15 19:57N 34°39' E 135°27'0 0.0
2018-Feb-15 19:30N 34°39' E 135°27'0 0.0
2018-Feb-15 19:00N 34°39' E 135°27'0 0.0
2018-Feb-15 18:30N 34°39' E 135°27'0 0.0
2018-Feb-15 18:00N 34°39' E 135°27'0 0.0
2018-Feb-15 17:30N 34°39' E 135°27'0 0.0
2018-Feb-15 17:00N 34°39' E 135°27'0 0.0
2018-Feb-15 16:30N 34°39' E 135°27'0 0.0
2018-Feb-15 16:00N 34°39' E 135°27'0 0.0
2018-Feb-15 15:30N 34°39' E 135°27'0 0.0
2018-Feb-15 15:00N 34°39' E 135°27'0 0.0
2018-Feb-15 14:30N 34°39' E 135°27'0 0.0
2018-Feb-15 14:00N 34°39' E 135°27'0 0.0
2018-Feb-15 13:30N 34°39' E 135°27'0 0.0
2018-Feb-15 13:00N 34°39' E 135°27'0 0.0
2018-Feb-15 12:27N 34°39' E 135°27'0 0.0
2018-Feb-15 12:00N 34°39' E 135°27'0 0.0
2018-Feb-15 11:30N 34°39' E 135°27'0 0.0
2018-Feb-15 10:58N 34°39' E 135°27'0 0.0
2018-Feb-15 10:28N 34°39' E 135°27'0 0.0
2018-Feb-15 10:00N 34°39' E 135°27'0 0.0
2018-Feb-15 09:30N 34°39' E 135°27'0 0.0
2018-Feb-15 08:59N 34°39' E 135°27'0 0.0
2018-Feb-15 08:26N 34°39' E 135°27'0 0.0
2018-Feb-15 07:56N 34°39' E 135°27'0 0.0
2018-Feb-15 07:29N 34°39' E 135°27'0 0.0
2018-Feb-15 06:56N 34°39' E 135°27'0 0.0
2018-Feb-15 06:24N 34°39' E 135°27'0 0.0
2018-Feb-15 05:57N 34°39' E 135°27'0 0.0
2018-Feb-15 05:30N 34°39' E 135°27'0 0.0
2018-Feb-15 04:58N 34°39' E 135°27'1 1.2
2018-Feb-15 04:30N 34°39' E 135°27'4 8.0
2018-Feb-15 04:00N 34°35' E 135°24'3 5.3
2018-Feb-15 03:30N 34°33' E 135°26'0 0.0
2018-Feb-15 03:00N 34°33' E 135°26'0 0.0
2018-Feb-15 02:30N 34°33' E 135°26'0 0.0
2018-Feb-15 02:00N 34°33' E 135°26'0 0.3
2018-Feb-15 01:29N 34°33' E 135°26'2 4.6
2018-Feb-15 01:00N 34°34' E 135°23'5 9.7
2018-Feb-15 00:30N 34°37' E 135°19'5 9.7
2018-Feb-15 00:00N 34°39' E 135°13'1 2.6
2018-Feb-14 23:30N 34°39' E 135°12'0 0.1
2018-Feb-14 23:00N 34°39' E 135°12'0 0.0
2018-Feb-14 22:30N 34°39' E 135°12'0 0.0
2018-Feb-14 22:00N 34°39' E 135°12'0 0.0
2018-Feb-14 21:30N 34°39' E 135°12'0 0.0
2018-Feb-14 21:00N 34°39' E 135°12'0 0.0
2018-Feb-14 20:30N 34°39' E 135°12'0 0.0
2018-Feb-14 20:00N 34°39' E 135°12'0 0.0
2018-Feb-14 19:30N 34°39' E 135°12'0 0.1
2018-Feb-14 19:00N 34°39' E 135°12'0 0.0
2018-Feb-14 18:30N 34°39' E 135°12'0 0.1
2018-Feb-14 18:00N 34°39' E 135°12'0 0.1
2018-Feb-14 17:30N 34°39' E 135°12'0 0.0
2018-Feb-14 17:00N 34°39' E 135°12'0 0.1
2018-Feb-14 16:30N 34°39' E 135°12'0 0.0
2018-Feb-14 16:00N 34°39' E 135°12'0 0.1
2018-Feb-14 15:28N 34°39' E 135°12'3 6.3
2018-Feb-14 15:00N 34°37' E 135°09'611.3
2018-Feb-14 14:31N 34°36' E 135°02'611.7
2018-Feb-14 14:00N 34°37' E 134°55'611.4
2018-Feb-14 13:30N 34°38' E 134°48'  

Dump ship's entire track history